Pagrindinis puslapis
METAR-TAF:

METAR-TAF

Oro uostai :

Takna, Peru

platuma: 18-04S, ilguma: 070-18W, Aukštis: 468 m

Dabartinis oras

Ataskaita buvo paskelbta 45 minutes, ne 15:00 UTC
Vėjas 2 kt nuo kintamojo kryptimis
Temperatūra 15°C
Drėgmė 77%
Slėgis 1018 hPa
Matomumas 10 km arba daugiau
Apsiniaukę ne aukštis 3300 ft

METAR: SPTN 271500Z VRB02KT 9999 OVC033 15/11 Q1018 RMK PP000

Laikas: 10:45 (15:45 UTC)

Prognozė

Ataskaita buvo paskelbta 1 valandą ir 45 minutes, ne 14:00 UTC
Prognozė galioja nuo 27 metu 14 UTC su 28 metu 12 UTC
Vėjas 6 kt iš Pietų/Pietryčių
Matomumas 10 km arba daugiau
Apsiniaukę ne aukštis 3000 ft
Nuo 27 metu 1630 UTC
Vėjas 9 kt iš Pietvakarių
Matomumas 10 km arba daugiau
Išsisklaidę debesys ne aukštis 4000 ft
Nuo 28 metu 0000 UTC
Vėjas 2 kt iš Pietų/Pietvakarių
Matomumas 10 km arba daugiau
Apsiniaukę ne aukštis 2500 ft

TAF: SPTN 271400Z 2714/2812 16006KT 9999 OVC030 TX22/2719Z TN13/2810Z FM271630 22009KT 9999 SCT040 FM280000 20002KT 9999 OVC025

Orai ataskaitas ir orų prognozės (METAR, TAF).

turimą stotys yra geltonos ir raudonos taškus žemėlapyje.

Perkelti pele per norėdami pamatyti stoties vardą.

Tada spustelėkite, norėdami matyti oro stebėjimo ir prognozės.

Norėdami pakeisti žemėlapį: spustelėkite ant žalios mygtukų su juodo kryžiaus žemyn,; žalią mygtuką su brūkšneliu, jei norite nutolinti; arba žalių rodyklių gretimoms žemėlapius.


METAR-TAF: